createdAt,value
2017-06-02T00:01:18.995Z,6.55
2017-06-02T00:03:45.627Z,7.00
2017-06-02T00:06:12.244Z,6.28
2017-06-02T00:08:38.910Z,9.00
2017-06-02T00:11:05.567Z,10.25
2017-06-02T00:13:32.290Z,8.22
2017-06-02T00:15:58.931Z,8.72
2017-06-02T00:18:25.563Z,9.45
2017-06-02T00:20:52.183Z,10.20
2017-06-02T00:23:18.847Z,10.78
2017-06-02T00:25:45.485Z,10.52
2017-06-02T00:28:12.130Z,8.23
2017-06-02T00:30:38.751Z,7.95
2017-06-02T00:33:05.407Z,12.00
2017-06-02T00:35:32.022Z,5.87
2017-06-02T00:37:58.642Z,10.33
2017-06-02T00:40:25.279Z,7.33
2017-06-02T00:42:51.892Z,5.93
2017-06-02T00:45:18.502Z,5.90
2017-06-02T00:47:45.140Z,9.47
2017-06-02T00:50:11.890Z,7.32
2017-06-02T00:52:38.615Z,9.85
2017-06-02T00:55:05.359Z,8.22
2017-06-02T00:57:32.001Z,7.78
2017-06-02T00:59:58.618Z,7.07
2017-06-02T01:02:25.279Z,8.95
2017-06-02T01:04:51.890Z,6.32
2017-06-02T01:07:18.554Z,7.17
2017-06-02T01:09:45.188Z,6.87
2017-06-02T01:12:11.838Z,7.20
2017-06-02T01:14:38.450Z,9.87
2017-06-02T01:17:05.092Z,6.58
2017-06-02T01:19:31.753Z,10.90
2017-06-02T01:21:58.362Z,7.88
2017-06-02T01:24:25.131Z,9.70
2017-06-02T01:26:51.771Z,6.70
2017-06-02T01:29:18.410Z,7.05
2017-06-02T01:31:45.150Z,9.30
2017-06-02T01:34:11.765Z,8.20
2017-06-02T01:36:38.466Z,6.75
2017-06-02T01:39:05.099Z,11.47
2017-06-02T01:41:31.714Z,7.55
2017-06-02T01:43:58.326Z,9.47
2017-06-02T01:46:24.960Z,7.30
2017-06-02T01:48:51.579Z,9.57
2017-06-02T01:51:18.187Z,7.98
2017-06-02T01:53:44.827Z,9.40
2017-06-02T01:56:11.446Z,10.05
2017-06-02T01:58:38.059Z,9.73
2017-06-02T02:01:04.730Z,8.10
2017-06-02T02:03:31.360Z,7.65
2017-06-02T02:05:57.976Z,8.05
2017-06-02T02:08:24.619Z,7.92
2017-06-02T02:10:51.236Z,8.02
2017-06-02T02:13:17.931Z,15.43
2017-06-02T02:15:44.567Z,6.97
2017-06-02T02:18:11.183Z,6.75
2017-06-02T02:20:37.843Z,6.72
2017-06-02T02:23:04.774Z,6.65
2017-06-02T02:25:31.390Z,7.10
2017-06-02T02:27:58.020Z,10.32
2017-06-02T02:30:24.707Z,8.02
2017-06-02T02:32:51.319Z,6.17
2017-06-02T02:35:17.983Z,6.87
2017-06-02T02:37:44.724Z,6.40
2017-06-02T02:40:11.362Z,7.27
2017-06-02T02:42:37.978Z,10.12
2017-06-02T02:45:04.611Z,9.13
2017-06-02T02:47:31.282Z,7.77
2017-06-02T02:49:57.896Z,10.85
2017-06-02T02:52:24.543Z,11.82
2017-06-02T02:54:51.200Z,9.77
2017-06-02T02:57:17.822Z,10.50
2017-06-02T02:59:44.479Z,9.63
2017-06-02T03:02:11.157Z,8.55
2017-06-02T03:04:38.542Z,9.97
2017-06-02T03:07:05.182Z,6.90
2017-06-02T03:09:31.800Z,7.50
2017-06-02T03:11:58.415Z,7.35
2017-06-02T03:14:25.131Z,7.95
2017-06-02T03:16:51.743Z,7.05
2017-06-02T03:19:18.362Z,6.97
2017-06-02T03:21:44.991Z,7.65
2017-06-02T03:24:11.671Z,7.35
2017-06-02T03:26:38.287Z,6.30
2017-06-02T03:29:04.935Z,8.20
2017-06-02T03:31:31.547Z,7.18
2017-06-02T03:33:58.163Z,7.35
2017-06-02T03:36:24.800Z,11.58
2017-06-02T03:38:51.415Z,8.00
2017-06-02T03:41:18.034Z,15.75
2017-06-02T03:43:44.683Z,6.65
2017-06-02T03:46:11.334Z,6.70
2017-06-02T03:48:37.950Z,11.35
2017-06-02T03:51:04.586Z,7.27
2017-06-02T03:53:31.256Z,8.18
2017-06-02T03:55:57.871Z,7.70
2017-06-02T03:58:24.534Z,7.95
2017-06-02T04:00:51.151Z,7.72
2017-06-02T04:03:17.762Z,8.77
2017-06-02T04:05:44.448Z,8.40
2017-06-02T04:08:11.059Z,8.88
2017-06-02T04:10:37.684Z,11.98
2017-06-02T04:13:04.347Z,6.67
2017-06-02T04:15:30.964Z,8.80
2017-06-02T04:17:57.642Z,7.85
2017-06-02T04:20:24.275Z,8.42
2017-06-02T04:22:50.891Z,11.18
2017-06-02T04:25:17.511Z,10.42
2017-06-02T04:27:44.207Z,7.10
2017-06-02T04:30:10.839Z,8.65
2017-06-02T04:32:37.451Z,8.53
2017-06-02T04:35:04.119Z,6.13
2017-06-02T04:37:30.755Z,8.15
2017-06-02T04:39:57.367Z,8.18
2017-06-02T04:42:24.344Z,9.25
2017-06-02T04:44:50.983Z,9.68
2017-06-02T04:47:17.599Z,9.00
2017-06-02T04:49:44.263Z,6.90
2017-06-02T04:52:10.874Z,6.27
2017-06-02T04:54:37.543Z,8.48
2017-06-02T04:57:04.283Z,14.92
2017-06-02T04:59:30.898Z,11.48
2017-06-02T05:01:57.595Z,12.87
2017-06-02T05:04:24.298Z,6.37
2017-06-02T05:06:50.941Z,7.90
2017-06-02T05:09:17.558Z,11.35
2017-06-02T05:11:44.190Z,8.02
2017-06-02T05:14:10.854Z,8.58
2017-06-02T05:16:37.475Z,10.23
2017-06-02T05:19:04.135Z,9.42
2017-06-02T05:21:30.756Z,10.85
2017-06-02T05:23:57.410Z,10.23
2017-06-02T05:26:24.051Z,12.93
2017-06-02T05:28:50.671Z,15.07
2017-06-02T05:31:17.331Z,8.25
2017-06-02T05:33:43.974Z,7.92
2017-06-02T05:36:10.606Z,11.22
2017-06-02T05:38:37.219Z,6.67
2017-06-02T05:41:03.851Z,8.50
2017-06-02T05:43:30.531Z,10.23
2017-06-02T05:45:57.146Z,10.83
2017-06-02T05:48:23.779Z,7.85
2017-06-02T05:50:50.395Z,7.45
2017-06-02T05:53:17.012Z,12.88
2017-06-02T05:55:43.643Z,8.43
2017-06-02T05:58:10.362Z,10.63
2017-06-02T06:00:36.978Z,9.55
2017-06-02T06:03:03.635Z,8.58
2017-06-02T06:05:30.791Z,10.85
2017-06-02T06:07:57.431Z,9.17
2017-06-02T06:10:24.205Z,10.33
2017-06-02T06:12:50.910Z,11.43
2017-06-02T06:15:17.528Z,8.85
2017-06-02T06:17:44.191Z,9.23
2017-06-02T06:20:10.807Z,9.53
2017-06-02T06:22:37.426Z,13.40
2017-06-02T06:25:04.102Z,7.55
2017-06-02T06:27:30.756Z,9.13
2017-06-02T06:29:57.386Z,10.25
2017-06-02T06:32:24.126Z,9.63
2017-06-02T06:34:50.743Z,7.02
2017-06-02T06:37:17.403Z,8.22
2017-06-02T06:39:44.046Z,12.88
2017-06-02T06:42:10.667Z,11.62
2017-06-02T06:44:37.284Z,9.77
2017-06-02T06:47:03.923Z,9.08
2017-06-02T06:49:30.601Z,8.98
2017-06-02T06:51:57.216Z,9.22
2017-06-02T06:54:23.857Z,9.32
2017-06-02T06:56:50.479Z,7.70
2017-06-02T06:59:17.116Z,10.58
2017-06-02T07:01:43.894Z,8.85
2017-06-02T07:04:10.515Z,12.93
2017-06-02T07:06:37.176Z,9.35
2017-06-02T07:09:03.811Z,8.10
2017-06-02T07:11:30.426Z,11.25
2017-06-02T07:13:57.091Z,11.63
2017-06-02T07:16:24.138Z,8.97
2017-06-02T07:18:50.779Z,7.97
2017-06-02T07:21:17.391Z,9.98
2017-06-02T07:23:44.035Z,10.63
2017-06-02T07:26:10.694Z,9.03
2017-06-02T07:28:37.322Z,8.98
2017-06-02T07:31:03.958Z,7.90
2017-06-02T07:33:30.650Z,8.23
2017-06-02T07:35:57.279Z,6.62
2017-06-02T07:38:23.995Z,5.63
2017-06-02T07:40:50.607Z,5.68
2017-06-02T07:43:17.271Z,5.47
2017-06-02T07:45:43.911Z,9.75
2017-06-02T07:48:10.552Z,4.85
2017-06-02T07:50:37.187Z,7.25
2017-06-02T07:53:03.931Z,6.57
2017-06-02T07:55:30.546Z,4.32
2017-06-02T07:57:57.163Z,6.62
2017-06-02T08:00:23.799Z,8.67
2017-06-02T08:02:50.419Z,5.57
2017-06-02T08:05:17.162Z,6.42
2017-06-02T08:07:43.838Z,6.42
2017-06-02T08:10:10.456Z,5.65
2017-06-02T08:12:37.072Z,7.75
2017-06-02T08:15:03.712Z,6.85
2017-06-02T08:17:30.327Z,4.62
2017-06-02T08:19:56.959Z,8.90
2017-06-02T08:22:23.595Z,6.85
2017-06-02T08:24:50.244Z,6.47
2017-06-02T08:27:16.861Z,5.15
2017-06-02T08:29:43.498Z,5.72
2017-06-02T08:32:10.161Z,8.15
2017-06-02T08:34:36.779Z,5.42
2017-06-02T08:37:03.456Z,6.88
2017-06-02T08:39:30.175Z,10.15
2017-06-02T08:41:56.815Z,7.05
2017-06-02T08:44:23.459Z,5.08
2017-06-02T08:46:50.071Z,4.17
2017-06-02T08:49:16.730Z,4.72
2017-06-02T08:51:43.483Z,4.67
2017-06-02T08:54:10.098Z,7.07
2017-06-02T08:56:36.751Z,4.35
2017-06-02T08:59:03.411Z,5.15
2017-06-02T09:01:30.026Z,4.58
2017-06-02T09:03:56.638Z,8.60
2017-06-02T09:06:23.279Z,5.17
2017-06-02T09:08:49.947Z,4.83
2017-06-02T09:11:16.583Z,5.20
2017-06-02T09:13:43.231Z,3.88
2017-06-02T09:16:09.886Z,4.35
2017-06-02T09:18:36.499Z,5.08
2017-06-02T09:21:03.138Z,5.08
2017-06-02T09:23:29.787Z,5.25
2017-06-02T09:25:56.453Z,5.15
2017-06-02T09:28:23.194Z,5.60
2017-06-02T09:30:49.911Z,16.55
2017-06-02T09:33:16.527Z,7.40
2017-06-02T09:35:43.196Z,5.58
2017-06-02T09:38:09.822Z,6.08
2017-06-02T09:40:36.438Z,6.87
2017-06-02T09:43:03.117Z,6.93
2017-06-02T09:45:29.739Z,7.03
2017-06-02T09:47:56.367Z,6.37
2017-06-02T09:50:23.002Z,4.17
2017-06-02T09:52:49.615Z,4.85
2017-06-02T09:55:16.230Z,6.55
2017-06-02T09:57:42.872Z,7.47
2017-06-02T10:00:09.605Z,7.00
2017-06-02T10:02:36.306Z,3.97
2017-06-02T10:05:02.981Z,5.07
2017-06-02T10:07:29.604Z,11.05
2017-06-02T10:09:56.218Z,5.25
2017-06-02T10:12:22.855Z,5.68
2017-06-02T10:14:49.471Z,4.82
2017-06-02T10:17:16.147Z,5.40
2017-06-02T10:19:42.787Z,6.28
2017-06-02T10:22:09.426Z,5.72
2017-06-02T10:24:36.043Z,4.72
2017-06-02T10:27:02.803Z,6.37
2017-06-02T10:29:29.419Z,5.68
2017-06-02T10:31:56.035Z,7.23
2017-06-02T10:34:22.675Z,8.63
2017-06-02T10:36:49.354Z,8.87
2017-06-02T10:39:15.975Z,5.08
2017-06-02T10:41:42.743Z,6.18
2017-06-02T10:44:09.379Z,8.20
2017-06-02T10:46:35.990Z,5.50
2017-06-02T10:49:02.630Z,5.85
2017-06-02T10:51:29.352Z,6.33
2017-06-02T10:53:56.305Z,7.73
2017-06-02T10:56:23.020Z,5.58
2017-06-02T10:58:49.635Z,5.05
2017-06-02T11:01:16.247Z,7.15
2017-06-02T11:03:42.887Z,6.87
2017-06-02T11:06:09.538Z,5.47
2017-06-02T11:08:36.181Z,4.42
2017-06-02T11:11:02.828Z,10.78
2017-06-02T11:13:29.459Z,5.80
2017-06-02T11:15:56.071Z,4.92
2017-06-02T11:18:22.707Z,6.25
2017-06-02T11:20:49.326Z,8.00
2017-06-02T11:23:15.947Z,4.73
2017-06-02T11:25:42.586Z,4.78
2017-06-02T11:28:09.202Z,5.78
2017-06-02T11:30:35.932Z,5.65
2017-06-02T11:33:02.626Z,5.67
2017-06-02T11:35:29.310Z,8.75
2017-06-02T11:37:55.935Z,7.47
2017-06-02T11:40:22.587Z,6.70
2017-06-02T11:42:49.208Z,4.75
2017-06-02T11:45:15.827Z,8.23
2017-06-02T11:47:42.467Z,4.68
2017-06-02T11:50:09.094Z,5.07
2017-06-02T11:52:35.783Z,6.15
2017-06-02T11:55:02.532Z,4.42
2017-06-02T11:57:29.155Z,4.57
2017-06-02T11:59:55.775Z,5.02
2017-06-02T12:02:22.439Z,3.07
2017-06-02T12:04:49.054Z,2.92
2017-06-02T12:07:15.670Z,3.00
2017-06-02T12:09:42.310Z,3.64
2017-06-02T12:12:08.999Z,3.62
2017-06-02T12:14:35.635Z,3.06
2017-06-02T12:17:02.285Z,3.22
2017-06-02T12:19:28.901Z,3.28
2017-06-02T12:21:55.527Z,2.84
2017-06-02T12:24:22.159Z,2.78
2017-06-02T12:26:48.770Z,4.04
2017-06-02T12:29:15.383Z,2.24
2017-06-02T12:31:42.015Z,3.20
2017-06-02T12:34:08.635Z,3.78
2017-06-02T12:36:35.251Z,4.32
2017-06-02T12:39:01.915Z,2.78
2017-06-02T12:41:28.531Z,2.24
2017-06-02T12:43:55.155Z,2.30
2017-06-02T12:46:21.796Z,1.92
2017-06-02T12:48:48.407Z,1.90
2017-06-02T12:51:15.019Z,2.28
2017-06-02T12:53:41.658Z,2.16
2017-06-02T12:56:08.274Z,3.80
2017-06-02T12:58:34.886Z,4.04
2017-06-02T13:01:01.570Z,5.62
2017-06-02T13:03:28.210Z,2.26
2017-06-02T13:05:54.823Z,1.78
2017-06-02T13:08:21.491Z,2.82
2017-06-02T13:10:48.104Z,3.38
2017-06-02T13:13:14.718Z,7.46
2017-06-02T13:15:41.407Z,2.54
2017-06-02T13:18:08.023Z,3.62
2017-06-02T13:20:34.678Z,2.44
2017-06-02T13:23:01.314Z,3.64
2017-06-02T13:25:27.928Z,4.18
2017-06-02T13:27:54.547Z,3.08
2017-06-02T13:30:21.242Z,3.74
2017-06-02T13:32:47.858Z,3.16
2017-06-02T13:35:14.475Z,2.60
2017-06-02T13:37:41.119Z,3.42
2017-06-02T13:40:07.730Z,8.92
2017-06-02T13:42:34.346Z,3.66
2017-06-02T13:45:00.978Z,2.72
2017-06-02T13:47:27.590Z,1.70
2017-06-02T13:49:54.204Z,6.36
2017-06-02T13:52:20.842Z,2.00
2017-06-02T13:54:47.527Z,1.70
2017-06-02T13:57:14.160Z,2.24
2017-06-02T13:59:40.883Z,2.92
2017-06-02T14:02:07.503Z,1.48
2017-06-02T14:04:35.037Z,2.30
2017-06-02T14:07:01.671Z,1.42
2017-06-02T14:09:28.386Z,2.06
2017-06-02T14:11:55.027Z,3.58
2017-06-02T14:14:21.673Z,1.38
2017-06-02T14:16:48.336Z,1.92
2017-06-02T14:19:14.947Z,1.30
2017-06-02T14:21:41.730Z,3.98
2017-06-02T14:24:09.251Z,1.60
2017-06-02T14:26:35.863Z,1.72
2017-06-02T14:29:02.499Z,5.38
2017-06-02T14:31:29.119Z,1.58
2017-06-02T14:33:55.735Z,2.52
2017-06-02T14:36:22.440Z,4.60
2017-06-02T14:38:49.057Z,2.08
2017-06-02T14:41:15.714Z,2.24
2017-06-02T14:43:42.351Z,1.98
2017-06-02T14:46:08.994Z,1.50
2017-06-02T14:48:35.611Z,2.62
2017-06-02T14:51:02.271Z,3.04
2017-06-02T14:53:28.911Z,3.92
2017-06-02T14:55:55.523Z,2.34
2017-06-02T14:58:22.170Z,2.60
2017-06-02T15:00:48.788Z,3.98
2017-06-02T15:03:15.403Z,4.02
2017-06-02T15:05:42.039Z,3.48
2017-06-02T15:08:08.654Z,1.98
2017-06-02T15:10:35.271Z,2.22
2017-06-02T15:13:01.911Z,1.88
2017-06-02T15:15:28.530Z,1.80
2017-06-02T15:17:55.147Z,1.50
2017-06-02T15:20:21.834Z,2.74
2017-06-02T15:22:48.450Z,2.82
2017-06-02T15:25:15.071Z,1.52
2017-06-02T15:27:41.750Z,1.62
2017-06-02T15:30:08.362Z,2.54
2017-06-02T15:32:34.975Z,2.90
2017-06-02T15:35:01.671Z,2.30
2017-06-02T15:37:28.287Z,4.56
2017-06-02T15:39:54.904Z,1.78
2017-06-02T15:42:21.587Z,1.54
2017-06-02T15:44:48.227Z,1.80
2017-06-02T15:47:14.838Z,1.62
2017-06-02T15:49:41.502Z,2.80
2017-06-02T15:52:08.142Z,2.82
2017-06-02T15:54:34.755Z,2.12
2017-06-02T15:57:01.419Z,1.74
2017-06-02T15:59:28.031Z,2.20
2017-06-02T16:01:54.647Z,1.44
2017-06-02T16:04:21.338Z,1.56
2017-06-02T16:06:47.979Z,2.32
2017-06-02T16:09:14.595Z,3.16
2017-06-02T16:11:41.259Z,2.34
2017-06-02T16:14:07.871Z,2.42
2017-06-02T16:16:34.534Z,1.74
2017-06-02T16:19:01.275Z,2.22
2017-06-02T16:21:27.915Z,1.70
2017-06-02T16:23:54.554Z,3.00
2017-06-02T16:26:21.228Z,2.40
2017-06-02T16:28:47.930Z,1.54
2017-06-02T16:31:14.571Z,3.38
2017-06-02T16:33:41.212Z,3.14
2017-06-02T16:36:07.823Z,2.60
2017-06-02T16:38:34.495Z,1.80
2017-06-02T16:41:01.140Z,3.00
2017-06-02T16:43:27.751Z,3.20
2017-06-02T16:45:54.367Z,1.44
2017-06-02T16:48:21.043Z,1.28
2017-06-02T16:50:47.654Z,3.94
2017-06-02T16:53:14.323Z,1.70
2017-06-02T16:55:40.962Z,3.80
2017-06-02T16:58:07.598Z,3.50
2017-06-02T17:00:34.238Z,3.64
2017-06-02T17:03:00.882Z,2.12
2017-06-02T17:05:27.498Z,2.62
2017-06-02T17:07:54.110Z,2.78
2017-06-02T17:10:20.747Z,4.80
2017-06-02T17:12:47.364Z,2.22
2017-06-02T17:15:13.979Z,2.06
2017-06-02T17:17:40.711Z,3.60
2017-06-02T17:20:07.355Z,3.00
2017-06-02T17:22:33.967Z,3.52
2017-06-02T17:25:00.726Z,3.24
2017-06-02T17:27:27.347Z,3.18
2017-06-02T17:29:54.019Z,4.08
2017-06-02T17:32:20.684Z,6.96
2017-06-02T17:34:47.299Z,5.92
2017-06-02T17:37:13.910Z,6.78
2017-06-02T17:39:40.551Z,3.76
2017-06-02T17:42:07.166Z,3.82
2017-06-02T17:44:33.778Z,3.76
2017-06-02T17:47:00.415Z,3.08
2017-06-02T17:49:27.026Z,8.16
2017-06-02T17:51:53.664Z,3.18
2017-06-02T17:54:20.402Z,4.40
2017-06-02T17:56:47.014Z,3.92
2017-06-02T17:59:13.714Z,2.92
2017-06-02T18:01:40.359Z,3.97
2017-06-02T18:04:06.987Z,4.02
2017-06-02T18:06:33.594Z,4.70
2017-06-02T18:09:00.242Z,5.30
2017-06-02T18:11:26.868Z,4.28
2017-06-02T18:13:53.487Z,4.86
2017-06-02T18:16:20.164Z,4.28
2017-06-02T18:18:46.783Z,4.37
2017-06-02T18:21:13.406Z,4.45
2017-06-02T18:23:40.066Z,6.13
2017-06-02T18:26:06.687Z,3.13
2017-06-02T18:28:33.307Z,4.58
2017-06-02T18:30:59.954Z,3.17
2017-06-02T18:33:26.623Z,2.38
2017-06-02T18:35:53.242Z,4.62
2017-06-02T18:38:19.886Z,3.87
2017-06-02T18:40:46.507Z,2.62
2017-06-02T18:43:13.127Z,3.35
2017-06-02T18:45:39.826Z,3.77
2017-06-02T18:48:06.439Z,4.13
2017-06-02T18:50:33.063Z,4.00
2017-06-02T18:52:59.739Z,5.10
2017-06-02T18:55:26.376Z,6.07
2017-06-02T18:57:52.995Z,3.97
2017-06-02T19:00:19.642Z,3.80
2017-06-02T19:02:46.258Z,4.13
2017-06-02T19:05:12.930Z,5.18
2017-06-02T19:07:39.671Z,7.55
2017-06-02T19:10:06.283Z,4.67
2017-06-02T19:12:32.894Z,6.83
2017-06-02T19:14:59.595Z,5.45
2017-06-02T19:17:26.215Z,5.15
2017-06-02T19:19:52.827Z,4.07
2017-06-02T19:22:19.490Z,4.82
2017-06-02T19:24:46.106Z,5.07
2017-06-02T19:27:12.722Z,4.00
2017-06-02T19:29:39.427Z,8.67
2017-06-02T19:32:06.042Z,7.38
2017-06-02T19:34:32.703Z,5.03
2017-06-02T19:36:59.338Z,6.42
2017-06-02T19:39:25.980Z,7.15
2017-06-02T19:41:52.620Z,5.68
2017-06-02T19:44:19.359Z,9.37
2017-06-02T19:46:45.996Z,6.75
2017-06-02T19:49:12.638Z,7.88
2017-06-02T19:51:39.374Z,6.87
2017-06-02T19:54:06.018Z,5.82
2017-06-02T19:56:32.630Z,5.68
2017-06-02T19:58:59.295Z,6.03
2017-06-02T20:01:25.907Z,7.55
2017-06-02T20:03:52.576Z,5.77
2017-06-02T20:06:19.315Z,6.90
2017-06-02T20:08:45.931Z,8.90
2017-06-02T20:11:12.593Z,7.38
2017-06-02T20:13:39.250Z,6.45
2017-06-02T20:16:05.867Z,6.78
2017-06-02T20:18:32.516Z,7.47
2017-06-02T20:20:59.179Z,8.52
2017-06-02T20:23:25.790Z,8.33
2017-06-02T20:25:52.435Z,8.37
2017-06-02T20:28:19.086Z,8.93
2017-06-02T20:30:45.706Z,9.80
2017-06-02T20:33:12.327Z,8.97
2017-06-02T20:35:38.972Z,6.67
2017-06-02T20:38:05.586Z,7.53
2017-06-02T20:40:32.199Z,6.05
2017-06-02T20:42:58.855Z,7.27
2017-06-02T20:45:25.467Z,8.18
2017-06-02T20:47:52.083Z,6.38
2017-06-02T20:50:18.817Z,5.98
2017-06-02T20:52:45.456Z,8.32
2017-06-02T20:55:12.094Z,6.18
2017-06-02T20:57:38.758Z,7.95
2017-06-02T21:00:05.374Z,6.93
2017-06-02T21:02:31.999Z,10.30
2017-06-02T21:04:58.651Z,7.00
2017-06-02T21:07:25.269Z,6.60
2017-06-02T21:09:51.930Z,6.58
2017-06-02T21:12:18.576Z,6.65
2017-06-02T21:14:45.193Z,7.13
2017-06-02T21:17:11.808Z,7.68
2017-06-02T21:19:38.445Z,5.85
2017-06-02T21:22:05.063Z,8.32
2017-06-02T21:24:31.683Z,7.00
2017-06-02T21:26:58.318Z,8.75
2017-06-02T21:29:24.935Z,6.63
2017-06-02T21:31:51.575Z,6.87
2017-06-02T21:34:18.211Z,6.48
2017-06-02T21:36:44.827Z,8.30
2017-06-02T21:39:11.439Z,7.10
2017-06-02T21:41:38.387Z,11.75
2017-06-02T21:44:05.071Z,5.87
2017-06-02T21:46:31.687Z,7.20
2017-06-02T21:48:58.367Z,11.73
2017-06-02T21:51:25.000Z,9.33
2017-06-02T21:53:51.623Z,12.18
2017-06-02T21:56:18.275Z,6.28
2017-06-02T21:58:44.895Z,7.72
2017-06-02T22:01:11.546Z,8.25
2017-06-02T22:03:38.190Z,7.20
2017-06-02T22:06:04.839Z,8.00
2017-06-02T22:08:31.463Z,8.33
2017-06-02T22:10:58.145Z,8.08
2017-06-02T22:13:24.851Z,6.45
2017-06-02T22:15:51.463Z,6.92
2017-06-02T22:18:18.231Z,7.30
2017-06-02T22:20:44.871Z,9.08
2017-06-02T22:23:11.491Z,9.20
2017-06-02T22:25:38.151Z,7.85
2017-06-02T22:28:04.786Z,8.18
2017-06-02T22:30:31.431Z,8.68
2017-06-02T22:32:58.166Z,8.63
2017-06-02T22:35:24.778Z,7.18
2017-06-02T22:37:51.399Z,7.63
2017-06-02T22:40:18.034Z,7.03
2017-06-02T22:42:44.731Z,9.13
2017-06-02T22:45:11.363Z,7.37
2017-06-02T22:47:38.015Z,9.93
2017-06-02T22:50:04.743Z,7.93
2017-06-02T22:52:31.363Z,7.75
2017-06-02T22:54:58.023Z,10.32
2017-06-02T22:57:24.659Z,12.60
2017-06-02T22:59:51.300Z,9.05
2017-06-02T23:02:18.042Z,7.18
2017-06-02T23:04:44.679Z,8.38
2017-06-02T23:07:11.299Z,7.45
2017-06-02T23:09:37.963Z,8.58
2017-06-02T23:12:04.594Z,8.08
2017-06-02T23:14:31.234Z,8.08
2017-06-02T23:16:57.975Z,7.83
2017-06-02T23:19:24.616Z,11.12
2017-06-02T23:21:51.227Z,9.48
2017-06-02T23:24:17.895Z,8.65
2017-06-02T23:26:44.530Z,9.08
2017-06-02T23:29:11.170Z,8.85
2017-06-02T23:31:37.912Z,9.80
2017-06-02T23:34:04.535Z,9.93
2017-06-02T23:36:31.155Z,8.48
2017-06-02T23:38:57.831Z,9.38
2017-06-02T23:41:24.453Z,12.27
2017-06-02T23:43:51.106Z,16.37
2017-06-02T23:46:17.849Z,9.10
2017-06-02T23:48:44.470Z,11.20
2017-06-02T23:51:11.087Z,9.87
2017-06-02T23:53:37.766Z,9.42
2017-06-02T23:56:04.414Z,9.95
2017-06-02T23:58:31.034Z,12.12
